Time;durP1;ratioP1;P1;durP2;ratioP2;P2;SDS_P1;SDS_P2;PMS_P1;PMS_P2;Temp;Humidity;BMP_temperature;BMP_pressure;BME280_temperature;BME280_humidity;BME280_pressure;Samples;Min_cycle;Max_cycle;Signal;HPM_P1;HPM_P2
2024/04/15 04:41:44;;;;;;;1.70;1.30;;;;;;;14.44;93.62;99781.82;110616;1248;22191;-52
2024/04/15 04:44:11;;;;;;;2.30;1.00;;;;;;;14.47;93.68;99778.60;112819;1246;22407;-45
2024/04/15 04:46:38;;;;;;;2.80;1.60;;;;;;;14.52;93.71;99786.05;113017;1237;22254;-45
2024/04/15 04:49:04;;;;;;;3.90;1.60;;;;;;;14.55;93.77;99790.88;112612;1242;22365;-45
2024/04/15 04:51:31;;;;;;;3.90;1.40;;;;;;;14.59;93.80;99786.73;111822;1244;22582;-48
2024/04/15 04:53:58;;;;;;;4.90;1.30;;;;;;;14.63;93.80;99783.13;110884;1238;22507;-46
2024/04/15 04:56:25;;;;;;;8.60;1.70;;;;;;;14.70;93.80;99782.98;113073;1237;22478;-52
2024/04/15 04:58:53;;;;;;;4.90;1.30;;;;;;;14.76;93.73;99787.73;112801;1236;22436;-54
2024/04/15 05:01:19;;;;;;;9.00;2.40;;;;;;;14.82;93.56;99786.15;113064;1237;22529;-45
2024/04/15 05:03:47;;;;;;;3.20;1.70;;;;;;;14.86;93.22;99780.27;113004;1238;22852;-47
2024/04/15 05:06:16;;;;;;;8.20;2.00;;;;;;;14.90;93.31;99774.02;113072;1237;22433;-46
2024/04/15 05:08:46;;;;;;;3.20;1.60;;;;;;;14.96;93.25;99782.66;112824;1248;22409;-54
2024/04/15 05:11:13;;;;;;;2.40;1.60;;;;;;;15.06;93.37;99794.86;112958;1248;23303;-54
2024/04/15 05:13:40;;;;;;;7.20;2.00;;;;;;;15.17;93.17;99792.45;112940;1248;22428;-53
2024/04/15 05:16:11;;;;;;;4.60;1.80;;;;;;;15.24;92.59;99794.90;113032;1248;22400;-46
2024/04/15 05:18:39;;;;;;;3.80;2.20;;;;;;;15.29;92.53;99794.23;112998;1248;22943;-46
2024/04/15 05:21:13;;;;;;;3.40;2.20;;;;;;;15.35;92.31;99794.09;113009;1248;22382;-53
2024/04/15 05:23:40;;;;;;;8.20;2.50;;;;;;;15.44;92.17;99803.49;112996;1248;22522;-55
2024/04/15 05:26:07;;;;;;;3.80;3.20;;;;;;;15.54;91.35;99803.03;112442;1248;22432;-46
2024/04/15 05:28:41;;;;;;;3.00;2.50;;;;;;;15.64;90.39;99803.48;112587;1248;22740;-44
2024/04/15 05:31:36;;;;;;;5.50;2.00;;;;;;;15.70;89.68;99799.80;112466;1248;22442;-54
2024/04/15 05:34:17;;;;;;;5.10;2.40;;;;;;;15.73;89.47;99795.17;111877;1248;22494;-45
2024/04/15 05:36:51;;;;;;;4.40;2.20;;;;;;;15.82;89.53;99794.19;112933;1248;23734;-45
2024/04/15 05:39:36;;;;;;;8.40;2.40;;;;;;;15.91;88.78;99796.20;112946;1248;23251;-54
2024/04/15 05:42:04;;;;;;;4.20;2.20;;;;;;;15.99;88.23;99796.66;112878;1248;22975;-45
2024/04/15 05:48:23;;;;;;;5.20;2.60;;;;;;;16.23;86.89;99793.28;112756;1248;22444;-52
2024/04/15 05:50:57;;;;;;;6.10;2.30;;;;;;;16.39;85.66;99794.02;112382;1248;22951;-54
2024/04/15 05:56:53;;;;;;;4.10;2.00;;;;;;;16.59;83.92;99816.46;112763;1248;22458;-46
2024/04/15 05:59:20;;;;;;;2.70;2.20;;;;;;;16.59;82.90;99818.38;112936;1248;22491;-44
2024/04/15 06:01:47;;;;;;;6.70;1.90;;;;;;;16.52;82.51;99820.38;112441;1248;22533;-54
2024/04/15 06:04:14;;;;;;;2.80;2.20;;;;;;;16.43;82.78;99816.94;112776;1248;22452;-54
2024/04/15 06:06:50;;;;;;;4.60;2.40;;;;;;;16.38;82.71;99809.34;112783;1248;23157;-54
2024/04/15 06:09:42;;;;;;;11.80;3.20;;;;;;;16.40;82.90;99808.25;112206;1248;22555;-54
2024/04/15 06:12:11;;;;;;;9.30;2.60;;;;;;;16.47;83.17;99804.14;111944;1248;22279;-44
2024/04/15 06:14:42;;;;;;;5.70;2.40;;;;;;;16.56;83.26;99802.81;112464;1248;22444;-53
2024/04/15 06:17:30;;;;;;;5.70;2.80;;;;;;;16.64;82.47;99797.96;111903;1248;23367;-52
2024/04/15 06:20:38;;;;;;;4.90;2.70;;;;;;;16.65;81.76;99795.29;111784;1248;22581;-45
2024/04/15 06:23:13;;;;;;;4.90;2.70;;;;;;;16.67;81.41;99786.60;111751;1248;22899;-54
2024/04/15 06:26:08;;;;;;;6.00;2.80;;;;;;;16.72;81.35;99779.08;111601;1248;24144;-52
2024/04/15 06:32:52;;;;;;;4.40;2.50;;;;;;;16.93;80.42;99780.11;111764;1248;22182;-55
2024/04/15 06:35:40;;;;;;;6.20;2.40;;;;;;;17.06;79.50;99772.45;111729;1248;22427;-46
2024/04/15 06:38:13;;;;;;;7.00;2.30;;;;;;;17.17;77.93;99779.12;112356;1240;22336;-53
2024/04/15 06:40:54;;;;;;;3.90;1.80;;;;;;;17.27;77.16;99775.25;112743;1248;23295;-53
2024/04/15 06:43:32;;;;;;;6.50;2.70;;;;;;;17.39;76.29;99779.21;112307;1248;23218;-46
2024/04/15 06:45:59;;;;;;;12.10;2.70;;;;;;;17.46;75.76;99786.38;112516;1248;22500;-54
2024/04/15 06:48:45;;;;;;;3.70;2.40;;;;;;;17.55;75.24;99785.14;112383;1248;22501;-55
2024/04/15 06:51:15;;;;;;;2.10;1.90;;;;;;;17.64;74.53;99775.84;111707;1248;22456;-45
2024/04/15 06:53:49;;;;;;;3.30;2.20;;;;;;;17.71;73.95;99769.61;112189;1248;22424;-55
2024/04/15 06:56:37;;;;;;;4.00;2.60;;;;;;;17.76;73.54;99766.59;112249;1248;23438;-53
2024/04/15 06:59:07;;;;;;;4.70;2.60;;;;;;;17.82;73.57;99763.02;111970;1248;22505;-46
2024/04/15 07:01:34;;;;;;;2.80;2.10;;;;;;;17.91;73.43;99759.34;112980;1248;22431;-56
2024/04/15 07:04:06;;;;;;;3.40;2.20;;;;;;;18.03;73.06;99754.09;112933;1248;22399;-53
2024/04/15 07:06:53;;;;;;;4.80;2.40;;;;;;;18.21;72.61;99749.14;112922;1248;22372;-55
2024/04/15 07:09:20;;;;;;;4.30;2.20;;;;;;;18.36;71.76;99749.95;112960;1248;22236;-54
2024/04/15 07:11:47;;;;;;;5.60;1.80;;;;;;;18.52;71.12;99748.23;112118;1248;22822;-45
2024/04/15 07:14:14;;;;;;;8.10;2.00;;;;;;;18.67;69.83;99750.84;112980;1248;22209;-54
2024/04/15 07:16:42;;;;;;;4.70;2.10;;;;;;;18.67;68.28;99750.29;112985;1247;22504;-46
2024/04/15 07:19:10;;;;;;;5.00;2.30;;;;;;;18.65;66.96;99744.35;112341;1248;23834;-49
2024/04/15 07:21:38;;;;;;;5.20;1.90;;;;;;;18.62;66.48;99749.08;112807;1248;22174;-53
2024/04/15 07:24:07;;;;;;;3.90;1.70;;;;;;;18.60;65.23;99745.27;112571;1248;22641;-47
2024/04/15 07:26:37;;;;;;;6.60;2.70;;;;;;;18.64;64.79;99751.83;112668;1248;22356;-45
2024/04/15 07:29:04;;;;;;;6.60;2.30;;;;;;;18.70;64.46;99750.00;112831;1248;22200;-46
2024/04/15 07:31:32;;;;;;;4.90;1.50;;;;;;;18.77;64.63;99747.23;112696;1248;23075;-54
2024/04/15 07:33:59;;;;;;;4.00;2.30;;;;;;;18.85;64.57;99750.95;112294;1248;22601;-55
2024/04/15 07:36:28;;;;;;;6.10;2.10;;;;;;;18.96;62.93;99750.67;112396;1248;200188;-46
2024/04/15 07:38:56;;;;;;;9.00;1.70;;;;;;;19.07;63.14;99747.69;112803;1248;22678;-45
2024/04/15 07:41:26;;;;;;;11.10;1.80;;;;;;;19.20;63.06;99750.52;112398;1248;22604;-53
2024/04/15 07:43:59;;;;;;;6.70;1.90;;;;;;;19.31;62.51;99753.73;112386;1248;27086;-54
2024/04/15 07:46:35;;;;;;;2.80;1.70;;;;;;;19.34;60.97;99748.65;112431;1248;22480;-52
2024/04/15 07:49:16;;;;;;;3.50;1.50;;;;;;;19.32;61.33;99745.55;112043;1245;22273;-55
2024/04/15 07:55:55;;;;;;;2.80;1.90;;;;;;;19.68;60.59;99738.11;112668;1248;22505;-47
2024/04/15 07:59:35;;;;;;;3.80;1.50;;;;;;;19.78;60.73;99730.39;111697;1248;22262;-50
2024/04/15 08:02:28;;;;;;;2.60;1.50;;;;;;;19.86;60.14;99722.55;112738;1248;22994;-46
2024/04/15 08:05:07;;;;;;;5.70;2.10;;;;;;;19.83;58.63;99719.90;112649;1241;23829;-45
2024/04/15 08:07:46;;;;;;;8.60;1.70;;;;;;;19.74;59.03;99727.59;112750;1248;22466;-46
2024/04/15 08:10:15;;;;;;;6.10;1.80;;;;;;;19.67;59.38;99721.55;112471;1248;23180;-53
2024/04/15 08:12:45;;;;;;;9.20;1.90;;;;;;;19.69;59.53;99713.31;112226;1248;22550;-46
2024/04/15 08:15:13;;;;;;;3.80;1.90;;;;;;;19.74;58.76;99708.48;112847;1248;22895;-46
2024/04/15 08:17:42;;;;;;;5.80;1.90;;;;;;;19.75;58.54;99702.05;112939;1248;22171;-46
2024/04/15 08:20:09;;;;;;;5.30;1.80;;;;;;;19.78;58.19;99697.13;111954;1248;22773;-47
2024/04/15 08:22:37;;;;;;;6.40;2.20;;;;;;;19.80;58.06;99696.17;112284;1248;22523;-55
2024/04/15 08:25:08;;;;;;;5.50;1.60;;;;;;;19.84;58.47;99695.44;112753;1248;23023;-53
2024/04/15 08:27:36;;;;;;;6.30;2.00;;;;;;;19.93;58.35;99703.30;112773;1248;22995;-55
2024/04/15 08:30:03;;;;;;;3.70;1.70;;;;;;;19.99;58.11;99702.85;112816;1248;23240;-55
2024/04/15 08:32:31;;;;;;;3.20;1.20;;;;;;;20.09;58.22;99708.55;112805;1248;23688;-56
2024/04/15 08:34:59;;;;;;;5.00;2.00;;;;;;;20.21;58.21;99704.60;112807;1248;22449;-46
2024/04/15 08:37:26;;;;;;;3.20;1.70;;;;;;;20.34;57.69;99703.80;112888;1248;22847;-55
2024/04/15 08:39:53;;;;;;;14.10;2.10;;;;;;;20.45;56.90;99696.69;112805;1248;22664;-54
2024/04/15 08:42:50;;;;;;;5.60;1.90;;;;;;;20.59;56.21;99689.30;112779;1248;22581;-46
2024/04/15 08:45:26;;;;;;;6.10;1.90;;;;;;;20.80;55.24;99679.34;112275;1248;23248;-45
2024/04/15 08:47:59;;;;;;;6.50;1.90;;;;;;;20.98;54.75;99676.84;112788;1248;22357;-46
2024/04/15 08:50:28;;;;;;;3.60;1.60;;;;;;;21.08;54.83;99674.53;112035;1241;22941;-46
2024/04/15 08:53:35;;;;;;;1.80;1.00;;;;;;;21.13;52.99;99676.40;112509;1248;22535;-45
2024/04/15 09:18:00;;;;;;;4.50;1.60;;;;;;;21.82;47.71;99618.19;112612;1248;23280;-55
2024/04/15 09:24:41;;;;;;;3.50;1.80;;;;;;;21.83;48.35;99615.78;112878;1248;23538;-46
2024/04/15 09:27:14;;;;;;;5.60;1.70;;;;;;;21.87;47.87;99619.13;112672;1248;22269;-54
2024/04/15 09:29:59;;;;;;;6.50;1.80;;;;;;;21.85;47.14;99625.59;112326;1248;22503;-53
2024/04/15 09:32:28;;;;;;;2.60;1.50;;;;;;;21.82;47.30;99623.11;112362;1248;22499;-46
2024/04/15 09:35:28;;;;;;;6.90;1.50;;;;;;;21.78;47.98;99622.45;110894;1248;25301;-55
2024/04/15 09:39:05;;;;;;;6.00;1.50;;;;;;;21.76;46.52;99621.69;112356;1248;23595;-46
2024/04/15 09:41:34;;;;;;;7.00;1.80;;;;;;;21.85;47.10;99616.58;112853;1248;23045;-55
2024/04/15 09:44:20;;;;;;;5.00;1.50;;;;;;;21.94;46.75;99605.59;112063;1248;22442;-54
2024/04/15 09:46:59;;;;;;;4.70;1.40;;;;;;;21.96;46.59;99591.02;112459;1248;22718;-45
2024/04/15 09:49:27;;;;;;;6.80;1.70;;;;;;;21.99;45.73;99577.42;112631;1248;23355;-44
2024/04/15 09:52:01;;;;;;;4.60;1.80;;;;;;;22.04;44.01;99569.98;112904;1248;22550;-46
2024/04/15 09:54:30;;;;;;;5.50;2.30;;;;;;;22.11;44.33;99561.11;112352;1248;22437;-56
2024/04/15 09:57:13;;;;;;;5.30;1.60;;;;;;;22.18;45.55;99549.52;112980;1248;22468;-46
2024/04/15 09:59:43;;;;;;;2.60;1.70;;;;;;;22.21;45.59;99550.23;112509;1248;22535;-55
2024/04/15 10:02:29;;;;;;;4.80;1.50;;;;;;;22.15;45.71;99544.34;112546;1248;22268;-46
2024/04/15 10:04:59;;;;;;;3.60;1.30;;;;;;;22.13;45.29;99539.48;112779;1248;22730;-56
2024/04/15 10:07:28;;;;;;;3.70;1.50;;;;;;;22.21;44.45;99534.92;112403;1248;22691;-46
2024/04/15 10:09:58;;;;;;;4.10;1.70;;;;;;;22.38;45.04;99532.31;112346;1248;23702;-45
2024/04/15 10:12:25;;;;;;;3.50;1.60;;;;;;;22.57;45.08;99532.58;112538;1248;22410;-45
2024/04/15 10:14:57;;;;;;;5.30;1.40;;;;;;;22.74;44.69;99528.48;112375;1248;22799;-46
2024/04/15 10:17:37;;;;;;;5.40;1.40;;;;;;;22.91;43.58;99520.38;111981;1248;22428;-54
2024/04/15 10:20:11;;;;;;;8.40;1.30;;;;;;;23.06;43.39;99519.95;112674;1248;22918;-54
2024/04/15 10:22:39;;;;;;;2.50;1.30;;;;;;;23.20;42.05;99511.94;112246;1248;22508;-45
2024/04/15 10:25:09;;;;;;;5.00;1.10;;;;;;;23.31;41.89;99507.13;112814;1248;23059;-46
2024/04/15 10:27:36;;;;;;;3.60;1.30;;;;;;;23.52;41.32;99495.80;112575;1248;22227;-45
2024/04/15 10:30:33;;;;;;;5.40;1.70;;;;;;;23.73;40.88;99495.83;112570;1248;23163;-57
2024/04/15 10:33:02;;;;;;;3.90;1.40;;;;;;;24.07;39.92;99500.46;111893;1256;22554;-46
2024/04/15 10:35:57;;;;;;;4.60;1.30;;;;;;;24.35;38.53;99492.88;111479;1256;23679;-46
2024/04/15 10:38:27;;;;;;;3.40;1.80;;;;;;;24.69;38.52;99489.56;111971;1257;23726;-56
2024/04/15 10:40:55;;;;;;;3.20;1.20;;;;;;;25.08;37.60;99486.11;112006;1256;22410;-55
2024/04/15 10:43:24;;;;;;;3.90;1.20;;;;;;;25.32;37.56;99485.03;112003;1256;22734;-47
2024/04/15 10:45:51;;;;;;;5.40;1.00;;;;;;;25.41;37.10;99494.52;111973;1256;22572;-46
2024/04/15 10:48:18;;;;;;;8.50;1.40;;;;;;;25.28;36.98;99488.02;111846;1256;25216;-54
2024/04/15 10:50:45;;;;;;;2.50;1.10;;;;;;;25.02;36.76;99483.86;112009;1256;22310;-55
2024/04/15 10:53:12;;;;;;;5.50;1.70;;;;;;;24.78;37.33;99483.77;111920;1256;22965;-51
2024/04/15 10:55:40;;;;;;;4.70;1.50;;;;;;;24.71;37.57;99478.94;111868;1257;23210;-53
2024/04/15 10:58:09;;;;;;;10.20;1.60;;;;;;;24.80;37.20;99490.58;112018;1256;23176;-52
2024/04/15 11:00:36;;;;;;;8.80;1.50;;;;;;;24.88;37.06;99480.20;111993;1256;22904;-53
2024/04/15 11:03:05;;;;;;;8.90;1.70;;;;;;;24.89;37.20;99463.03;112070;1256;23162;-55
2024/04/15 11:05:32;;;;;;;4.50;1.50;;;;;;;24.94;36.99;99464.95;111898;1256;22725;-53
2024/04/15 11:07:59;;;;;;;8.60;1.40;;;;;;;24.99;36.78;99457.15;111826;1256;22328;-45
2024/04/15 11:10:26;;;;;;;7.00;2.00;;;;;;;25.00;36.69;99461.38;112749;1248;22950;-45
2024/04/15 11:12:53;;;;;;;5.60;1.40;;;;;;;24.99;36.98;99445.02;112282;1248;22619;-44
2024/04/15 11:15:21;;;;;;;4.40;1.40;;;;;;;24.98;37.50;99432.63;112795;1248;23275;-44
2024/04/15 11:17:49;;;;;;;6.40;1.40;;;;;;;25.06;37.44;99431.48;112835;1248;22492;-54
2024/04/15 11:20:16;;;;;;;8.80;1.90;;;;;;;25.15;36.66;99439.58;112458;1248;22912;-54
2024/04/15 11:22:45;;;;;;;13.30;1.50;;;;;;;25.14;36.31;99433.56;112820;1248;22422;-55
2024/04/15 11:25:13;;;;;;;11.40;1.60;;;;;;;25.07;36.84;99424.61;112926;1248;23259;-55
2024/04/15 11:27:41;;;;;;;13.60;2.20;;;;;;;25.04;37.53;99429.33;112913;1248;22401;-46
2024/04/15 11:30:11;;;;;;;8.60;1.90;;;;;;;25.03;36.89;99417.25;112711;1248;22890;-52
2024/04/15 11:32:38;;;;;;;14.90;1.90;;;;;;;24.88;36.93;99412.58;112868;1248;22401;-52
2024/04/15 11:35:06;;;;;;;8.80;1.50;;;;;;;24.74;37.75;99405.07;112936;1248;22390;-45
2024/04/15 11:37:34;;;;;;;9.70;1.90;;;;;;;24.75;38.43;99411.40;112598;1248;22488;-46
2024/04/15 11:40:01;;;;;;;8.10;2.10;;;;;;;24.76;37.76;99413.33;112845;1248;23023;-45
2024/04/15 11:42:28;;;;;;;3.80;1.20;;;;;;;24.63;38.49;99403.56;112766;1248;22390;-51
2024/04/15 11:44:56;;;;;;;9.40;2.30;;;;;;;24.58;39.47;99391.77;112247;1248;23278;-46
2024/04/15 11:47:23;;;;;;;12.50;1.60;;;;;;;24.67;39.01;99391.85;112768;1248;22395;-42
2024/04/15 11:49:50;;;;;;;10.40;1.80;;;;;;;24.72;39.37;99380.83;112230;1248;22596;-52
2024/04/15 11:52:17;;;;;;;6.00;1.90;;;;;;;24.70;39.48;99368.64;112765;1248;22454;-53
2024/04/15 11:54:45;;;;;;;3.40;1.40;;;;;;;24.62;39.88;99357.98;111782;1248;22600;-52
2024/04/15 11:57:12;;;;;;;11.20;2.10;;;;;;;24.53;40.09;99369.55;112963;1247;23362;-45
2024/04/15 11:59:39;;;;;;;10.20;2.30;;;;;;;24.50;39.79;99372.20;112087;1248;22517;-52
2024/04/15 12:02:06;;;;;;;15.00;2.00;;;;;;;24.57;39.32;99364.08;112582;1248;22467;-45
2024/04/15 12:04:53;;;;;;;6.20;1.90;;;;;;;24.66;38.83;99341.16;112815;1248;23212;-45
2024/04/15 12:07:22;;;;;;;5.00;1.80;;;;;;;24.65;39.06;99344.58;112257;1247;22499;-52
2024/04/15 12:09:50;;;;;;;6.80;1.60;;;;;;;24.57;39.04;99326.24;112944;1248;22921;-52
2024/04/15 12:12:20;;;;;;;22.80;2.50;;;;;;;24.51;39.17;99348.30;112969;1248;22426;-45
2024/04/15 12:14:47;;;;;;;16.30;2.10;;;;;;;24.48;38.46;99322.88;112872;1248;22216;-46
2024/04/15 12:17:14;;;;;;;14.80;2.40;;;;;;;24.42;38.91;99302.39;112892;1248;23429;-45
2024/04/15 12:19:41;;;;;;;4.80;1.20;;;;;;;24.39;39.01;99289.41;112732;1248;22482;-52
2024/04/15 12:22:08;;;;;;;6.20;1.70;;;;;;;24.42;39.68;99294.73;112927;1248;23132;-52
2024/04/15 12:24:35;;;;;;;5.10;1.50;;;;;;;24.45;40.21;99288.49;112985;1248;22236;-51
2024/04/15 12:27:07;;;;;;;15.20;2.90;;;;;;;24.47;40.30;99285.86;112945;1248;22476;-51
